sensor_id;sensor_type;location;lat;lon;timestamp;pressure;altitude;pressure_sealevel;temperature;humidity
15674;BME280;7937;48.090;16.212;2023-04-20T00:01:25;97748.31;;;5.15;81.80
15674;BME280;7937;48.090;16.212;2023-04-20T00:04:28;97693.31;;;4.86;82.58
15674;BME280;7937;48.090;16.212;2023-04-20T00:07:30;97752.75;;;5.22;83.59
15674;BME280;7937;48.090;16.212;2023-04-20T00:10:33;97723.94;;;5.07;83.69
15674;BME280;7937;48.090;16.212;2023-04-20T00:13:35;97794.00;;;5.42;84.49
15674;BME280;7937;48.090;16.212;2023-04-20T00:16:37;97588.22;;;3.97;84.56
15674;BME280;7937;48.090;16.212;2023-04-20T00:19:39;97638.13;;;4.31;85.82
15674;BME280;7937;48.090;16.212;2023-04-20T00:22:42;97437.59;;;3.07;85.48
15674;BME280;7937;48.090;16.212;2023-04-20T00:25:44;97585.41;;;4.05;85.97
15674;BME280;7937;48.090;16.212;2023-04-20T00:28:46;97771.03;;;5.16;86.27
15674;BME280;7937;48.090;16.212;2023-04-20T00:31:48;97739.59;;;4.69;86.25
15674;BME280;7937;48.090;16.212;2023-04-20T00:34:50;97672.41;;;4.51;86.33
15674;BME280;7937;48.090;16.212;2023-04-20T00:37:52;97565.09;;;3.79;86.39
15674;BME280;7937;48.090;16.212;2023-04-20T00:40:54;97764.16;;;5.09;86.56
15674;BME280;7937;48.090;16.212;2023-04-20T00:43:56;97761.91;;;5.06;87.02
15674;BME280;7937;48.090;16.212;2023-04-20T00:46:59;97473.81;;;3.05;86.73
15674;BME280;7937;48.090;16.212;2023-04-20T00:50:01;97619.44;;;4.13;86.69
15674;BME280;7937;48.090;16.212;2023-04-20T00:53:05;97674.44;;;4.16;86.51
15674;BME280;7937;48.090;16.212;2023-04-20T00:56:07;97753.81;;;4.94;86.92
15674;BME280;7937;48.090;16.212;2023-04-20T00:59:10;97701.44;;;4.71;85.93
15674;BME280;7937;48.090;16.212;2023-04-20T01:02:13;97692.09;;;4.62;86.04
15674;BME280;7937;48.090;16.212;2023-04-20T01:05:15;97700.03;;;4.55;86.08
15674;BME280;7937;48.090;16.212;2023-04-20T01:08:18;97665.13;;;4.53;86.13
15674;BME280;7937;48.090;16.212;2023-04-20T01:11:20;97773.69;;;5.10;86.03
15674;BME280;7937;48.090;16.212;2023-04-20T01:14:22;97734.13;;;4.83;86.22
15674;BME280;7937;48.090;16.212;2023-04-20T01:17:24;97758.28;;;5.00;86.19
15674;BME280;7937;48.090;16.212;2023-04-20T01:20:27;97495.78;;;3.52;86.03
15674;BME280;7937;48.090;16.212;2023-04-20T01:23:29;97663.28;;;4.60;86.08
15674;BME280;7937;48.090;16.212;2023-04-20T01:26:37;97472.28;;;3.30;85.68
15674;BME280;7937;48.090;16.212;2023-04-20T01:29:41;97503.06;;;3.63;85.39
15674;BME280;7937;48.090;16.212;2023-04-20T01:32:43;97570.19;;;4.07;84.95
15674;BME280;7937;48.090;16.212;2023-04-20T01:35:46;97609.53;;;4.35;85.22
15674;BME280;7937;48.090;16.212;2023-04-20T01:38:49;97564.13;;;4.00;85.61
15674;BME280;7937;48.090;16.212;2023-04-20T01:41:52;97605.66;;;4.37;85.01
15674;BME280;7937;48.090;16.212;2023-04-20T01:44:54;97642.19;;;4.60;85.42
15674;BME280;7937;48.090;16.212;2023-04-20T01:47:56;97651.91;;;4.47;85.72
15674;BME280;7937;48.090;16.212;2023-04-20T01:50:59;97672.59;;;4.63;85.12
15674;BME280;7937;48.090;16.212;2023-04-20T01:54:02;97732.25;;;5.17;85.62
15674;BME280;7937;48.090;16.212;2023-04-20T01:57:04;97535.31;;;3.85;85.52
15674;BME280;7937;48.090;16.212;2023-04-20T02:00:07;97645.84;;;4.46;85.73
15674;BME280;7937;48.090;16.212;2023-04-20T02:03:17;97408.44;;;3.02;85.64
15674;BME280;7937;48.090;16.212;2023-04-20T02:06:20;97736.50;;;5.25;86.31
15674;BME280;7937;48.090;16.212;2023-04-20T02:09:23;97727.38;;;5.07;86.10
15674;BME280;7937;48.090;16.212;2023-04-20T02:12:25;97556.00;;;3.95;86.49
15674;BME280;7937;48.090;16.212;2023-04-20T02:15:27;97737.94;;;5.14;86.97
15674;BME280;7937;48.090;16.212;2023-04-20T02:18:29;97385.53;;;2.82;86.54
15674;BME280;7937;48.090;16.212;2023-04-20T02:21:33;97402.94;;;2.83;86.55
15674;BME280;7937;48.090;16.212;2023-04-20T02:24:36;97650.50;;;4.64;86.95
15674;BME280;7937;48.090;16.212;2023-04-20T02:27:38;97594.53;;;4.29;86.72
15674;BME280;7937;48.090;16.212;2023-04-20T02:30:41;97585.41;;;4.25;86.98
15674;BME280;7937;48.090;16.212;2023-04-20T02:33:45;97520.50;;;3.77;85.97
15674;BME280;7937;48.090;16.212;2023-04-20T02:36:48;97444.31;;;3.29;86.25
15674;BME280;7937;48.090;16.212;2023-04-20T02:39:51;97558.81;;;4.13;85.45
15674;BME280;7937;48.090;16.212;2023-04-20T02:42:53;97326.63;;;2.64;85.06
15674;BME280;7937;48.090;16.212;2023-04-20T02:45:55;97525.38;;;3.87;85.25
15674;BME280;7937;48.090;16.212;2023-04-20T02:48:58;97453.84;;;3.30;85.65
15674;BME280;7937;48.090;16.212;2023-04-20T02:52:01;97716.25;;;4.99;85.59
15674;BME280;7937;48.090;16.212;2023-04-20T02:55:04;97631.25;;;4.44;85.46
15674;BME280;7937;48.090;16.212;2023-04-20T02:58:06;97612.78;;;4.17;85.73
15674;BME280;7937;48.090;16.212;2023-04-20T03:01:29;97587.22;;;3.98;85.22
15674;BME280;7937;48.090;16.212;2023-04-20T03:04:37;97635.28;;;4.13;85.72
15674;BME280;7937;48.090;16.212;2023-04-20T03:07:48;97649.50;;;4.38;85.47
15674;BME280;7937;48.090;16.212;2023-04-20T03:10:50;97735.50;;;4.92;84.93
15674;BME280;7937;48.090;16.212;2023-04-20T03:13:54;97627.59;;;4.25;84.90
15674;BME280;7937;48.090;16.212;2023-04-20T03:16:56;97746.28;;;4.91;85.14
15674;BME280;7937;48.090;16.212;2023-04-20T03:19:59;97767.19;;;4.92;85.31
15674;BME280;7937;48.090;16.212;2023-04-20T03:23:01;97592.69;;;3.96;84.45
15674;BME280;7937;48.090;16.212;2023-04-20T03:26:04;97630.81;;;4.07;84.61
15674;BME280;7937;48.090;16.212;2023-04-20T03:29:24;97657.41;;;4.45;84.95
15674;BME280;7937;48.090;16.212;2023-04-20T03:32:27;97672.00;;;4.48;84.26
15674;BME280;7937;48.090;16.212;2023-04-20T03:35:31;97679.13;;;4.40;84.54
15674;BME280;7937;48.090;16.212;2023-04-20T03:38:34;97736.38;;;4.73;84.60
15674;BME280;7937;48.090;16.212;2023-04-20T03:41:36;97618.00;;;3.84;84.67
15674;BME280;7937;48.090;16.212;2023-04-20T03:44:38;97741.63;;;4.73;84.74
15674;BME280;7937;48.090;16.212;2023-04-20T03:47:41;97691.69;;;4.38;84.90
15674;BME280;7937;48.090;16.212;2023-04-20T03:50:44;97742.84;;;4.71;84.99
15674;BME280;7937;48.090;16.212;2023-04-20T03:53:46;97515.00;;;3.26;84.61
15674;BME280;7937;48.090;16.212;2023-04-20T03:56:48;97703.66;;;4.48;84.93
15674;BME280;7937;48.090;16.212;2023-04-20T03:59:52;97495.31;;;3.15;84.77
15674;BME280;7937;48.090;16.212;2023-04-20T04:02:56;97488.63;;;3.06;84.35
15674;BME280;7937;48.090;16.212;2023-04-20T04:06:02;97494.50;;;3.15;84.56
15674;BME280;7937;48.090;16.212;2023-04-20T04:09:06;97667.31;;;4.17;83.96
15674;BME280;7937;48.090;16.212;2023-04-20T04:12:08;97542.75;;;3.35;83.84
15674;BME280;7937;48.090;16.212;2023-04-20T04:15:11;97681.72;;;4.14;84.08
15674;BME280;7937;48.090;16.212;2023-04-20T04:18:22;97485.16;;;2.99;83.79
15674;BME280;7937;48.090;16.212;2023-04-20T04:21:25;97737.97;;;4.61;83.74
15674;BME280;7937;48.090;16.212;2023-04-20T04:24:35;97621.84;;;3.88;84.07
15674;BME280;7937;48.090;16.212;2023-04-20T04:27:42;97491.41;;;2.91;83.87
15674;BME280;7937;48.090;16.212;2023-04-20T04:30:45;97627.75;;;3.97;84.36
15674;BME280;7937;48.090;16.212;2023-04-20T04:33:48;97593.84;;;3.60;84.11
15674;BME280;7937;48.090;16.212;2023-04-20T04:37:02;97686.41;;;4.32;84.25
15674;BME280;7937;48.090;16.212;2023-04-20T04:40:19;97631.59;;;3.87;84.21
15674;BME280;7937;48.090;16.212;2023-04-20T04:43:24;97757.25;;;4.75;84.29
15674;BME280;7937;48.090;16.212;2023-04-20T04:46:38;97646.84;;;4.05;84.24
15674;BME280;7937;48.090;16.212;2023-04-20T04:49:40;97781.41;;;4.72;84.13
15674;BME280;7937;48.090;16.212;2023-04-20T04:52:44;97657.56;;;4.04;83.66
15674;BME280;7937;48.090;16.212;2023-04-20T04:55:46;97701.41;;;4.31;83.40
15674;BME280;7937;48.090;16.212;2023-04-20T04:58:49;97623.44;;;3.69;83.56
15674;BME280;7937;48.090;16.212;2023-04-20T05:01:51;97555.47;;;3.25;83.60
15674;BME280;7937;48.090;16.212;2023-04-20T05:04:53;97764.97;;;4.70;83.51
15674;BME280;7937;48.090;16.212;2023-04-20T05:07:55;97665.06;;;4.00;83.51
15674;BME280;7937;48.090;16.212;2023-04-20T05:10:57;97717.88;;;4.40;83.55
15674;BME280;7937;48.090;16.212;2023-04-20T05:14:00;97673.38;;;4.04;83.43
15674;BME280;7937;48.090;16.212;2023-04-20T05:17:03;97519.59;;;3.10;82.50
15674;BME280;7937;48.090;16.212;2023-04-20T05:20:06;97479.88;;;2.92;83.13
15674;BME280;7937;48.090;16.212;2023-04-20T05:23:09;97781.63;;;4.83;82.63
15674;BME280;7937;48.090;16.212;2023-04-20T05:26:12;97568.50;;;3.53;82.63
15674;BME280;7937;48.090;16.212;2023-04-20T05:29:15;97694.09;;;4.33;82.29
15674;BME280;7937;48.090;16.212;2023-04-20T05:32:17;97777.75;;;4.86;82.75
15674;BME280;7937;48.090;16.212;2023-04-20T05:35:20;97453.72;;;2.77;82.75
15674;BME280;7937;48.090;16.212;2023-04-20T05:38:22;97731.47;;;4.57;82.86
15674;BME280;7937;48.090;16.212;2023-04-20T05:41:25;97585.38;;;3.65;81.56
15674;BME280;7937;48.090;16.212;2023-04-20T05:44:28;97735.94;;;4.56;82.17
15674;BME280;7937;48.090;16.212;2023-04-20T05:47:30;97715.63;;;4.37;81.71
15674;BME280;7937;48.090;16.212;2023-04-20T05:50:33;97481.69;;;2.92;81.71
15674;BME280;7937;48.090;16.212;2023-04-20T05:53:35;97651.31;;;4.11;82.04
15674;BME280;7937;48.090;16.212;2023-04-20T05:56:37;97750.16;;;4.69;81.74
15674;BME280;7937;48.090;16.212;2023-04-20T05:59:40;97760.13;;;4.73;81.54
15674;BME280;7937;48.090;16.212;2023-04-20T06:02:42;97710.97;;;4.52;81.52
15674;BME280;7937;48.090;16.212;2023-04-20T06:05:45;97520.47;;;3.44;81.79
15674;BME280;7937;48.090;16.212;2023-04-20T06:08:47;97705.91;;;4.64;80.93
15674;BME280;7937;48.090;16.212;2023-04-20T06:11:49;97500.22;;;3.38;81.27
15674;BME280;7937;48.090;16.212;2023-04-20T06:14:51;97705.91;;;4.64;81.53
15674;BME280;7937;48.090;16.212;2023-04-20T06:17:53;97656.41;;;4.39;81.48
15674;BME280;7937;48.090;16.212;2023-04-20T06:20:55;97618.88;;;4.24;81.76
15674;BME280;7937;48.090;16.212;2023-04-20T06:23:57;97537.91;;;3.52;81.26
15674;BME280;7937;48.090;16.212;2023-04-20T06:27:00;97787.09;;;5.28;81.27
15674;BME280;7937;48.090;16.212;2023-04-20T06:30:04;97569.19;;;3.95;81.32
15674;BME280;7937;48.090;16.212;2023-04-20T06:33:06;97800.69;;;5.45;80.95
15674;BME280;7937;48.090;16.212;2023-04-20T06:36:10;97705.50;;;4.80;80.13
15674;BME280;7937;48.090;16.212;2023-04-20T06:39:15;97731.06;;;4.86;80.79
15674;BME280;7937;48.090;16.212;2023-04-20T06:42:18;97653.34;;;4.49;80.72
15674;BME280;7937;48.090;16.212;2023-04-20T06:45:20;97695.13;;;4.72;81.32
15674;BME280;7937;48.090;16.212;2023-04-20T06:48:22;97629.59;;;4.43;79.94
15674;BME280;7937;48.090;16.212;2023-04-20T06:51:33;97550.50;;;4.03;80.37
15674;BME280;7937;48.090;16.212;2023-04-20T06:54:35;97583.56;;;4.25;80.05
15674;BME280;7937;48.090;16.212;2023-04-20T06:57:37;97737.09;;;5.33;80.46
15674;BME280;7937;48.090;16.212;2023-04-20T07:00:40;97674.16;;;5.10;80.70
15674;BME280;7937;48.090;16.212;2023-04-20T07:03:42;97499.63;;;4.09;80.04
15674;BME280;7937;48.090;16.212;2023-04-20T07:06:45;97730.91;;;5.66;79.89
15674;BME280;7937;48.090;16.212;2023-04-20T07:09:47;97693.63;;;5.29;79.55
15674;BME280;7937;48.090;16.212;2023-04-20T07:12:49;97674.97;;;5.17;79.11
15674;BME280;7937;48.090;16.212;2023-04-20T07:15:51;97590.25;;;4.54;79.36
15674;BME280;7937;48.090;16.212;2023-04-20T07:18:54;97802.00;;;5.87;78.99
15674;BME280;7937;48.090;16.212;2023-04-20T07:21:56;97579.28;;;4.51;79.10
15674;BME280;7937;48.090;16.212;2023-04-20T07:25:05;97706.63;;;5.37;79.37
15674;BME280;7937;48.090;16.212;2023-04-20T07:28:08;97519.06;;;4.28;78.37
15674;BME280;7937;48.090;16.212;2023-04-20T07:31:10;97823.88;;;6.21;78.34
15674;BME280;7937;48.090;16.212;2023-04-20T07:34:12;97811.22;;;6.30;77.85
15674;BME280;7937;48.090;16.212;2023-04-20T07:37:15;97629.06;;;5.12;77.84
15674;BME280;7937;48.090;16.212;2023-04-20T07:40:17;97567.03;;;4.83;77.50
15674;BME280;7937;48.090;16.212;2023-04-20T07:43:19;97797.63;;;6.58;77.71
15674;BME280;7937;48.090;16.212;2023-04-20T07:46:22;97755.81;;;6.35;76.88
15674;BME280;7937;48.090;16.212;2023-04-20T07:49:24;97825.97;;;6.82;76.86
15674;BME280;7937;48.090;16.212;2023-04-20T07:52:27;97761.38;;;6.58;76.14
15674;BME280;7937;48.090;16.212;2023-04-20T07:55:29;97585.13;;;5.37;76.02
15674;BME280;7937;48.090;16.212;2023-04-20T07:58:31;97707.84;;;5.93;75.49
15674;BME280;7937;48.090;16.212;2023-04-20T08:01:35;97816.25;;;6.76;75.66
15674;BME280;7937;48.090;16.212;2023-04-20T08:04:37;97723.56;;;6.19;76.18
15674;BME280;7937;48.090;16.212;2023-04-20T08:07:40;97726.59;;;6.23;76.22
15674;BME280;7937;48.090;16.212;2023-04-20T08:10:42;97721.28;;;6.55;75.08
15674;BME280;7937;48.090;16.212;2023-04-20T08:13:44;97753.59;;;6.70;74.87
15674;BME280;7937;48.090;16.212;2023-04-20T08:16:46;97672.09;;;6.47;75.16
15674;BME280;7937;48.090;16.212;2023-04-20T08:19:48;97721.66;;;6.90;74.79
15674;BME280;7937;48.090;16.212;2023-04-20T08:22:51;97723.28;;;7.09;75.96
15674;BME280;7937;48.090;16.212;2023-04-20T08:25:54;97727.81;;;7.27;73.30
15674;BME280;7937;48.090;16.212;2023-04-20T08:28:56;97687.22;;;7.08;72.94
15674;BME280;7937;48.090;16.212;2023-04-20T08:31:58;97818.34;;;7.86;72.94
15674;BME280;7937;48.090;16.212;2023-04-20T08:35:00;97774.94;;;7.43;72.92
15674;BME280;7937;48.090;16.212;2023-04-20T08:38:03;97808.69;;;7.73;73.16
15674;BME280;7937;48.090;16.212;2023-04-20T08:41:05;97700.59;;;7.20;72.78
15674;BME280;7937;48.090;16.212;2023-04-20T08:44:07;97802.34;;;8.11;72.20
15674;BME280;7937;48.090;16.212;2023-04-20T08:47:10;97794.38;;;8.29;72.34
15674;BME280;7937;48.090;16.212;2023-04-20T08:50:13;97557.97;;;6.98;71.39
15674;BME280;7937;48.090;16.212;2023-04-20T08:53:16;97747.28;;;8.55;71.05
15674;BME280;7937;48.090;16.212;2023-04-20T08:56:18;97511.41;;;7.39;70.72
15674;BME280;7937;48.090;16.212;2023-04-20T08:59:21;97753.28;;;9.27;67.08
15674;BME280;7937;48.090;16.212;2023-04-20T09:02:23;97687.38;;;8.70;67.97
15674;BME280;7937;48.090;16.212;2023-04-20T09:05:27;97585.28;;;8.19;69.06
15674;BME280;7937;48.090;16.212;2023-04-20T09:08:40;97811.06;;;9.67;67.96
15674;BME280;7937;48.090;16.212;2023-04-20T09:11:43;97804.16;;;9.66;67.15
15674;BME280;7937;48.090;16.212;2023-04-20T09:14:46;97499.78;;;7.52;67.10
15674;BME280;7937;48.090;16.212;2023-04-20T09:17:49;97684.28;;;8.85;68.00
15674;BME280;7937;48.090;16.212;2023-04-20T09:20:51;97622.59;;;8.71;67.44
15674;BME280;7937;48.090;16.212;2023-04-20T09:24:02;97792.38;;;10.02;67.85
15674;BME280;7937;48.090;16.212;2023-04-20T09:27:14;97465.53;;;8.39;67.17
15674;BME280;7937;48.090;16.212;2023-04-20T09:30:17;97706.66;;;10.28;64.43
15674;BME280;7937;48.090;16.212;2023-04-20T09:33:19;97519.28;;;9.22;63.76
15674;BME280;7937;48.090;16.212;2023-04-20T09:36:40;97704.72;;;10.86;63.88
15674;BME280;7937;48.090;16.212;2023-04-20T09:39:44;97479.75;;;9.42;62.59
15674;BME280;7937;48.090;16.212;2023-04-20T09:42:48;97700.63;;;11.17;62.76
15674;BME280;7937;48.090;16.212;2023-04-20T09:45:50;97646.22;;;10.96;60.72
15674;BME280;7937;48.090;16.212;2023-04-20T09:48:53;97521.25;;;9.89;61.85
15674;BME280;7937;48.090;16.212;2023-04-20T09:51:57;97486.06;;;9.70;62.15
15674;BME280;7937;48.090;16.212;2023-04-20T09:54:59;97544.78;;;10.14;61.91
15674;BME280;7937;48.090;16.212;2023-04-20T09:58:03;97779.19;;;11.82;59.83
15674;BME280;7937;48.090;16.212;2023-04-20T10:01:09;97769.47;;;11.54;61.98
15674;BME280;7937;48.090;16.212;2023-04-20T10:04:11;97768.84;;;11.85;61.83
15674;BME280;7937;48.090;16.212;2023-04-20T10:07:22;97668.44;;;11.41;58.82
15674;BME280;7937;48.090;16.212;2023-04-20T10:10:25;97777.59;;;12.03;59.71
15674;BME280;7937;48.090;16.212;2023-04-20T10:13:32;97691.03;;;11.33;59.59
15674;BME280;7937;48.090;16.212;2023-04-20T10:16:34;97754.84;;;11.78;60.79
15674;BME280;7937;48.090;16.212;2023-04-20T10:19:41;97716.03;;;11.49;61.05
15674;BME280;7937;48.090;16.212;2023-04-20T10:22:44;97634.59;;;11.02;62.24
15674;BME280;7937;48.090;16.212;2023-04-20T10:25:57;97678.13;;;11.69;60.02
15674;BME280;7937;48.090;16.212;2023-04-20T10:29:00;97625.97;;;10.95;60.27
15674;BME280;7937;48.090;16.212;2023-04-20T10:32:03;97406.09;;;9.93;60.63
15674;BME280;7937;48.090;16.212;2023-04-20T10:35:08;97742.47;;;12.65;59.23
15674;BME280;7937;48.090;16.212;2023-04-20T10:38:11;97705.88;;;12.71;58.17
15674;BME280;7937;48.090;16.212;2023-04-20T10:41:13;97649.22;;;12.69;56.53
15674;BME280;7937;48.090;16.212;2023-04-20T10:44:15;97607.09;;;12.17;55.09
15674;BME280;7937;48.090;16.212;2023-04-20T10:47:29;97579.00;;;11.82;56.16
15674;BME280;7937;48.090;16.212;2023-04-20T10:50:32;97516.66;;;11.39;57.61
15674;BME280;7937;48.090;16.212;2023-04-20T10:53:34;97626.06;;;12.47;57.65
15674;BME280;7937;48.090;16.212;2023-04-20T10:56:41;97730.00;;;13.45;57.24
15674;BME280;7937;48.090;16.212;2023-04-20T10:59:44;97543.38;;;12.30;57.40
15674;BME280;7937;48.090;16.212;2023-04-20T11:02:56;97702.53;;;13.60;56.81
15674;BME280;7937;48.090;16.212;2023-04-20T11:05:59;97707.97;;;13.80;54.88
15674;BME280;7937;48.090;16.212;2023-04-20T11:09:22;97681.91;;;13.60;58.04
15674;BME280;7937;48.090;16.212;2023-04-20T11:12:37;97698.75;;;13.56;54.78
15674;BME280;7937;48.090;16.212;2023-04-20T11:15:40;97643.16;;;13.21;54.58
15674;BME280;7937;48.090;16.212;2023-04-20T11:18:48;97459.03;;;11.97;53.03
15674;BME280;7937;48.090;16.212;2023-04-20T11:21:53;97571.78;;;12.79;55.07
15674;BME280;7937;48.090;16.212;2023-04-20T11:25:05;97677.09;;;13.62;52.48
15674;BME280;7937;48.090;16.212;2023-04-20T11:28:08;97736.38;;;13.86;53.84
15674;BME280;7937;48.090;16.212;2023-04-20T11:31:17;97473.88;;;11.83;52.21
15674;BME280;7937;48.090;16.212;2023-04-20T11:34:20;97679.75;;;12.78;52.92
15674;BME280;7937;48.090;16.212;2023-04-20T11:37:23;97629.84;;;12.19;51.80
15674;BME280;7937;48.090;16.212;2023-04-20T11:40:25;97625.47;;;12.40;53.96
15674;BME280;7937;48.090;16.212;2023-04-20T11:43:31;97675.59;;;12.92;54.14
15674;BME280;7937;48.090;16.212;2023-04-20T11:46:34;97545.06;;;12.36;52.91
15674;BME280;7937;48.090;16.212;2023-04-20T11:49:38;97682.34;;;13.42;53.20
15674;BME280;7937;48.090;16.212;2023-04-20T11:52:40;97732.31;;;13.84;53.88
15674;BME280;7937;48.090;16.212;2023-04-20T11:55:42;97597.06;;;13.08;53.92
15674;BME280;7937;48.090;16.212;2023-04-20T11:58:44;97424.84;;;11.94;53.15
15674;BME280;7937;48.090;16.212;2023-04-20T12:01:47;97591.22;;;13.16;51.92
15674;BME280;7937;48.090;16.212;2023-04-20T12:04:49;97598.13;;;13.07;52.00
15674;BME280;7937;48.090;16.212;2023-04-20T12:07:51;97646.00;;;13.51;52.00
15674;BME280;7937;48.090;16.212;2023-04-20T12:10:53;97610.00;;;13.22;51.53
15674;BME280;7937;48.090;16.212;2023-04-20T12:14:00;97644.03;;;14.04;50.23
15674;BME280;7937;48.090;16.212;2023-04-20T12:17:03;97702.47;;;14.23;50.22
15674;BME280;7937;48.090;16.212;2023-04-20T12:20:06;97663.56;;;13.94;50.17
15674;BME280;7937;48.090;16.212;2023-04-20T12:23:09;97535.94;;;13.32;48.66
15674;BME280;7937;48.090;16.212;2023-04-20T12:26:12;97545.50;;;13.18;49.32
15674;BME280;7937;48.090;16.212;2023-04-20T12:29:14;97692.31;;;14.40;49.95
15674;BME280;7937;48.090;16.212;2023-04-20T12:32:17;97510.94;;;13.06;49.92
15674;BME280;7937;48.090;16.212;2023-04-20T12:35:20;97654.78;;;14.14;50.72
15674;BME280;7937;48.090;16.212;2023-04-20T12:38:22;97435.25;;;13.01;51.32
15674;BME280;7937;48.090;16.212;2023-04-20T12:41:24;97592.06;;;14.15;50.67
15674;BME280;7937;48.090;16.212;2023-04-20T12:44:27;97423.50;;;13.02;50.20
15674;BME280;7937;48.090;16.212;2023-04-20T12:47:29;97525.59;;;13.61;50.35
15674;BME280;7937;48.090;16.212;2023-04-20T12:50:32;97497.59;;;13.06;50.52
15674;BME280;7937;48.090;16.212;2023-04-20T12:53:34;97595.16;;;13.56;51.42
15674;BME280;7937;48.090;16.212;2023-04-20T12:56:39;97575.88;;;13.59;51.41
15674;BME280;7937;48.090;16.212;2023-04-20T12:59:45;97462.09;;;13.26;50.71
15674;BME280;7937;48.090;16.212;2023-04-20T13:02:53;97571.91;;;13.62;49.62
15674;BME280;7937;48.090;16.212;2023-04-20T13:05:55;97574.28;;;13.63;51.18
15674;BME280;7937;48.090;16.212;2023-04-20T13:08:59;97426.28;;;12.64;50.37
15674;BME280;7937;48.090;16.212;2023-04-20T13:12:02;97445.78;;;12.60;51.16
15674;BME280;7937;48.090;16.212;2023-04-20T13:15:06;97686.88;;;13.94;52.23
15674;BME280;7937;48.090;16.212;2023-04-20T13:18:11;97570.72;;;13.32;52.88
15674;BME280;7937;48.090;16.212;2023-04-20T13:21:16;97526.09;;;13.48;52.07
15674;BME280;7937;48.090;16.212;2023-04-20T13:24:18;97682.06;;;14.11;52.84
15674;BME280;7937;48.090;16.212;2023-04-20T13:27:21;97596.81;;;13.78;52.65
15674;BME280;7937;48.090;16.212;2023-04-20T13:30:24;97670.88;;;14.35;52.22
15674;BME280;7937;48.090;16.212;2023-04-20T13:33:26;97402.81;;;12.72;51.57
15674;BME280;7937;48.090;16.212;2023-04-20T13:36:29;97453.91;;;12.90;51.87
15674;BME280;7937;48.090;16.212;2023-04-20T13:39:33;97467.59;;;13.04;52.61
15674;BME280;7937;48.090;16.212;2023-04-20T13:42:36;97449.72;;;13.15;51.88
15674;BME280;7937;48.090;16.212;2023-04-20T13:45:38;97358.84;;;12.32;52.83
15674;BME280;7937;48.090;16.212;2023-04-20T13:48:42;97354.31;;;11.85;53.29
15674;BME280;7937;48.090;16.212;2023-04-20T13:51:44;97391.44;;;12.39;53.11
15674;BME280;7937;48.090;16.212;2023-04-20T13:54:46;97665.22;;;14.26;54.57
15674;BME280;7937;48.090;16.212;2023-04-20T13:57:49;97518.31;;;13.47;52.89
15674;BME280;7937;48.090;16.212;2023-04-20T14:00:51;97557.75;;;13.77;52.42
15674;BME280;7937;48.090;16.212;2023-04-20T14:03:54;97416.47;;;12.90;52.69
15674;BME280;7937;48.090;16.212;2023-04-20T14:06:56;97553.75;;;13.79;53.97
15674;BME280;7937;48.090;16.212;2023-04-20T14:09:58;97375.31;;;12.76;53.57
15674;BME280;7937;48.090;16.212;2023-04-20T14:13:01;97536.31;;;13.77;53.78
15674;BME280;7937;48.090;16.212;2023-04-20T14:16:10;97603.88;;;14.40;52.87
15674;BME280;7937;48.090;16.212;2023-04-20T14:19:14;97607.66;;;14.54;51.99
15674;BME280;7937;48.090;16.212;2023-04-20T14:22:16;97519.97;;;13.83;52.80
15674;BME280;7937;48.090;16.212;2023-04-20T14:25:19;97472.03;;;13.46;53.38
15674;BME280;7937;48.090;16.212;2023-04-20T14:28:21;97447.41;;;13.44;52.13
15674;BME280;7937;48.090;16.212;2023-04-20T14:31:23;97423.31;;;13.59;51.14
15674;BME280;7937;48.090;16.212;2023-04-20T14:34:25;97652.16;;;14.81;51.90
15674;BME280;7937;48.090;16.212;2023-04-20T14:37:28;97396.50;;;13.18;51.52
15674;BME280;7937;48.090;16.212;2023-04-20T14:40:30;97580.06;;;14.49;52.73
15674;BME280;7937;48.090;16.212;2023-04-20T14:43:32;97355.03;;;12.96;51.61
15674;BME280;7937;48.090;16.212;2023-04-20T14:46:39;97562.09;;;14.24;51.04
15674;BME280;7937;48.090;16.212;2023-04-20T14:49:43;97411.13;;;12.90;52.30
15674;BME280;7937;48.090;16.212;2023-04-20T14:52:45;97436.31;;;13.05;53.20
15674;BME280;7937;48.090;16.212;2023-04-20T14:55:47;97547.84;;;14.13;51.99
15674;BME280;7937;48.090;16.212;2023-04-20T14:58:50;97463.47;;;13.59;51.55
15674;BME280;7937;48.090;16.212;2023-04-20T15:01:52;97509.56;;;13.82;52.10
15674;BME280;7937;48.090;16.212;2023-04-20T15:05:04;97431.84;;;13.21;53.42
15674;BME280;7937;48.090;16.212;2023-04-20T15:08:11;97529.66;;;13.84;53.61
15674;BME280;7937;48.090;16.212;2023-04-20T15:11:13;97582.97;;;14.06;53.63
15674;BME280;7937;48.090;16.212;2023-04-20T15:14:15;97380.09;;;12.74;54.61
15674;BME280;7937;48.090;16.212;2023-04-20T15:17:18;97564.47;;;14.05;54.15
15674;BME280;7937;48.090;16.212;2023-04-20T15:20:20;97581.63;;;14.19;53.91
15674;BME280;7937;48.090;16.212;2023-04-20T15:23:22;97557.78;;;14.12;52.89
15674;BME280;7937;48.090;16.212;2023-04-20T15:26:25;97398.09;;;13.09;54.86
15674;BME280;7937;48.090;16.212;2023-04-20T15:29:27;97536.81;;;13.53;54.16
15674;BME280;7937;48.090;16.212;2023-04-20T15:32:30;97511.09;;;13.47;52.50
15674;BME280;7937;48.090;16.212;2023-04-20T15:35:34;97546.72;;;13.63;53.32
15674;BME280;7937;48.090;16.212;2023-04-20T15:38:36;97478.03;;;13.01;54.51
15674;BME280;7937;48.090;16.212;2023-04-20T15:41:39;97418.97;;;12.39;54.09
15674;BME280;7937;48.090;16.212;2023-04-20T15:44:41;97385.16;;;12.08;55.27
15674;BME280;7937;48.090;16.212;2023-04-20T15:47:43;97632.72;;;13.87;53.55
15674;BME280;7937;48.090;16.212;2023-04-20T15:50:52;97516.00;;;13.03;54.58
15674;BME280;7937;48.090;16.212;2023-04-20T15:53:54;97517.88;;;13.02;54.01
15674;BME280;7937;48.090;16.212;2023-04-20T15:56:56;97575.94;;;13.70;54.49
15674;BME280;7937;48.090;16.212;2023-04-20T15:59:59;97390.91;;;12.32;56.56
15674;BME280;7937;48.090;16.212;2023-04-20T16:03:01;97436.00;;;12.81;55.00
15674;BME280;7937;48.090;16.212;2023-04-20T16:06:04;97630.81;;;13.72;57.50
15674;BME280;7937;48.090;16.212;2023-04-20T16:09:07;97525.56;;;12.88;57.99
15674;BME280;7937;48.090;16.212;2023-04-20T16:12:09;97435.75;;;12.30;56.98
15674;BME280;7937;48.090;16.212;2023-04-20T16:15:12;97397.28;;;12.31;55.18
15674;BME280;7937;48.090;16.212;2023-04-20T16:18:14;97496.66;;;12.80;55.50
15674;BME280;7937;48.090;16.212;2023-04-20T16:21:17;97556.94;;;13.03;55.96